Time;durP1;ratioP1;P1;durP2;ratioP2;P2;SDS_P1;SDS_P2;PMS_P1;PMS_P2;Temp;Humidity;BMP_temperature;BMP_pressure;BME280_temperature;BME280_humidity;BME280_pressure;Samples;Min_cycle;Max_cycle;Signal;HPM_P1;HPM_P2
2023/10/28 00:17:07;;;;;;;20.30;15.80;;;;;;;8.86;100.00;96728.70;434281;1257;110037;-40
2023/10/28 00:37:18;;;;;;;13.40;9.80;;;;;;;8.85;99.98;96737.15;434403;1257;110426;-39
2023/10/28 00:57:27;;;;;;;12.50;9.00;;;;;;;8.74;100.00;96749.98;434298;1257;97916;-41
2023/10/28 01:17:35;;;;;;;11.50;8.80;;;;;;;8.79;100.00;96775.36;435338;1255;97823;-40
2023/10/28 01:37:43;;;;;;;12.20;9.20;;;;;;;8.82;100.00;96812.25;434951;1257;109238;-40
2023/10/28 01:47:47;;;;;;;8.20;6.90;;;;;;;8.85;100.00;96828.28;435021;1257;97883;-40
2023/10/28 01:57:51;;;;;;;10.10;6.40;;;;;;;8.87;100.00;96835.08;435025;1257;107697;-40
2023/10/28 02:07:55;;;;;;;9.60;8.40;;;;;;;8.79;100.00;96836.19;434954;1258;98492;-41
2023/10/28 02:17:59;;;;;;;8.70;6.90;;;;;;;8.70;100.00;96828.45;434971;1256;110378;-41
2023/10/28 02:28:08;;;;;;;6.50;5.30;;;;;;;8.62;100.00;96836.46;435084;1256;108179;-41
2023/10/28 02:38:11;;;;;;;7.80;6.00;;;;;;;8.59;100.00;96855.95;435005;1257;97882;-40
2023/10/28 02:48:14;;;;;;;17.20;9.00;;;;;;;8.52;100.00;96874.05;435072;1259;108438;-39
2023/10/28 02:58:18;;;;;;;13.10;9.10;;;;;;;8.45;100.00;96878.71;434894;1268;98005;-42
2023/10/28 03:08:24;;;;;;;9.50;6.50;;;;;;;8.48;100.00;96887.63;434997;1256;108567;-40
2023/10/28 03:18:29;;;;;;;8.70;6.40;;;;;;;8.55;100.00;96888.34;435061;1257;107754;-40
2023/10/28 03:28:36;;;;;;;8.30;6.60;;;;;;;8.56;100.00;96897.36;435081;1257;97870;-40
2023/10/28 03:38:40;;;;;;;9.80;6.80;;;;;;;8.57;100.00;96906.17;435318;1253;107566;-41
2023/10/28 03:48:43;;;;;;;7.30;6.30;;;;;;;8.60;100.00;96915.60;434963;1259;99100;-40
2023/10/28 03:58:46;;;;;;;12.40;8.40;;;;;;;8.66;100.00;96918.83;434822;1257;109982;-40
2023/10/28 04:18:53;;;;;;;16.60;9.50;;;;;;;8.71;100.00;96923.48;434900;1257;97894;-41
2023/10/28 04:38:59;;;;;;;12.70;9.70;;;;;;;8.78;100.00;96919.98;434798;1252;97259;-39
2023/10/28 04:49:05;;;;;;;12.80;9.80;;;;;;;8.82;100.00;96922.95;434935;1252;111486;-40
2023/10/28 05:09:15;;;;;;;20.00;13.10;;;;;;;8.87;100.00;96938.34;435123;1253;97903;-39
2023/10/28 05:19:21;;;;;;;18.70;13.90;;;;;;;8.90;100.00;96948.31;434961;1257;108664;-40
2023/10/28 05:29:24;;;;;;;14.70;12.60;;;;;;;8.90;100.00;96944.52;434958;1255;96663;-39
2023/10/28 05:49:33;;;;;;;12.70;10.30;;;;;;;8.92;100.00;96964.39;434832;1258;107109;-40
2023/10/28 06:09:40;;;;;;;9.00;6.00;;;;;;;9.01;100.00;96974.45;434867;1258;108197;-40
2023/10/28 06:19:44;;;;;;;10.80;6.50;;;;;;;9.19;100.00;96976.91;434838;1255;98447;-40
2023/10/28 06:29:48;;;;;;;5.00;4.40;;;;;;;9.46;100.00;96987.46;435036;1255;111256;-39
2023/10/28 06:39:52;;;;;;;7.30;3.20;;;;;;;9.76;100.00;97002.15;434880;1256;108541;-40
2023/10/28 06:49:55;;;;;;;3.80;2.70;;;;;;;10.08;100.00;97007.85;434849;1259;98053;-40
2023/10/28 07:30:13;;;;;;;5.10;3.20;;;;;;;13.54;99.91;97047.40;434920;1259;108516;-41
2023/10/28 07:40:20;;;;;;;5.00;3.20;;;;;;;14.52;99.57;97060.42;434967;1258;97791;-40
2023/10/28 08:10:29;;;;;;;3.20;2.70;;;;;;;15.39;93.45;97108.43;435000;1253;97880;-40
2023/10/28 08:20:32;;;;;;;4.60;2.20;;;;;;;14.68;90.57;97120.18;435022;1253;110302;-40
2023/10/28 08:30:36;;;;;;;3.70;2.00;;;;;;;14.24;89.32;97141.66;434998;1253;107469;-41
2023/10/28 08:40:44;;;;;;;2.90;1.80;;;;;;;14.30;88.78;97157.48;434892;1253;97873;-39
2023/10/28 09:21:03;;;;;;;4.90;1.80;;;;;;;14.30;86.00;97210.80;434996;1259;108741;-41
2023/10/28 09:31:07;;;;;;;2.40;1.70;;;;;;;13.84;83.08;97226.39;434960;1259;99511;-40
2023/10/28 09:41:12;;;;;;;6.00;2.00;;;;;;;13.45;83.85;97231.46;435140;1257;98283;-40
2023/10/28 10:01:35;;;;;;;7.50;3.20;;;;;;;14.10;83.62;97228.15;434936;1253;97954;-39
2023/10/28 10:21:48;;;;;;;2.10;1.40;;;;;;;13.41;82.08;97236.73;434997;1259;97741;-41
2023/10/28 10:42:03;;;;;;;9.40;4.90;;;;;;;13.33;82.13;97238.35;435051;1252;108148;-41
2023/10/28 10:52:08;;;;;;;6.90;3.60;;;;;;;13.29;82.54;97250.02;434712;1257;96641;-40
2023/10/28 11:32:28;;;;;;;4.60;2.60;;;;;;;13.57;83.67;97255.30;434946;1267;108007;-41
2023/10/28 11:42:34;;;;;;;3.80;2.80;;;;;;;13.74;83.39;97260.59;435018;1254;96646;-39
2023/10/28 11:52:37;;;;;;;4.30;3.00;;;;;;;13.77;82.18;97266.39;435021;1258;110529;-41
2023/10/28 12:02:40;;;;;;;4.60;1.80;;;;;;;13.56;81.79;97282.71;434928;1264;106787;-40
2023/10/28 12:12:43;;;;;;;7.50;2.10;;;;;;;13.38;81.93;97283.38;435044;1259;97896;-40
2023/10/28 12:22:46;;;;;;;3.90;2.60;;;;;;;13.26;81.24;97292.88;434955;1256;98338;-39
2023/10/28 12:32:51;;;;;;;8.30;4.40;;;;;;;13.18;81.19;97303.66;434963;1257;108821;-40
2023/10/28 12:42:55;;;;;;;7.10;4.20;;;;;;;12.77;81.76;97317.05;434688;1252;362680;-40
2023/10/28 12:52:58;;;;;;;8.30;5.00;;;;;;;12.31;82.70;97324.09;434910;1267;97972;-40
2023/10/28 13:03:01;;;;;;;10.80;5.70;;;;;;;12.02;83.52;97332.53;434913;1257;107574;-40
2023/10/28 13:13:05;;;;;;;7.70;3.90;;;;;;;11.84;84.65;97336.14;434999;1256;97848;-39
2023/10/28 13:33:14;;;;;;;10.70;5.30;;;;;;;11.45;85.72;97355.42;434929;1266;96706;-40
2023/10/28 13:43:18;;;;;;;9.50;5.30;;;;;;;11.17;86.51;97362.85;434954;1256;109733;-40
2023/10/28 13:53:22;;;;;;;8.30;5.90;;;;;;;11.02;87.31;97370.19;434987;1276;108030;-40
2023/10/28 14:13:30;;;;;;;14.50;9.70;;;;;;;11.02;88.32;97377.65;434894;1257;108522;-40
2023/10/28 14:23:33;;;;;;;20.50;10.90;;;;;;;11.05;88.86;97379.45;434894;1265;96657;-40
2023/10/28 14:53:45;;;;;;;17.40;10.70;;;;;;;10.98;89.90;97399.81;434931;1252;97918;-39
2023/10/28 15:03:49;;;;;;;9.80;5.80;;;;;;;10.90;90.14;97410.54;435081;1259;97483;-40
2023/10/28 15:13:52;;;;;;;10.60;6.90;;;;;;;10.86;90.42;97412.30;434941;1257;109846;-40
2023/10/28 15:33:58;;;;;;;19.20;11.90;;;;;;;10.84;90.78;97424.94;435077;1254;108654;-40
2023/10/28 15:44:06;;;;;;;23.10;13.10;;;;;;;10.83;91.13;97430.70;435024;1257;98318;-41
2023/10/28 15:54:10;;;;;;;20.00;13.40;;;;;;;10.79;91.28;97435.46;435053;1257;110827;-39
2023/10/28 16:04:13;;;;;;;27.10;14.50;;;;;;;10.76;91.55;97439.10;434965;1258;108306;-39
2023/10/28 16:14:16;;;;;;;25.00;16.40;;;;;;;10.69;91.66;97446.16;434992;1254;97865;-40
2023/10/28 16:24:20;;;;;;;30.20;20.80;;;;;;;10.55;91.92;97449.38;435129;1257;97370;-40
2023/10/28 16:34:24;;;;;;;28.80;18.20;;;;;;;10.50;91.95;97451.48;434937;1257;108327;-38
2023/10/28 16:44:27;;;;;;;39.40;20.80;;;;;;;10.52;92.14;97462.37;434962;1256;98197;-40
2023/10/28 16:54:30;;;;;;;36.30;21.90;;;;;;;10.54;92.24;97468.25;434941;1257;107116;-41
2023/10/28 17:04:33;;;;;;;42.10;21.90;;;;;;;10.54;92.42;97475.80;434974;1257;98378;-40
2023/10/28 17:14:37;;;;;;;38.20;21.80;;;;;;;10.54;92.64;97486.69;435171;1257;109718;-40
2023/10/28 17:24:41;;;;;;;42.60;23.00;;;;;;;10.56;92.81;97500.60;434932;1257;108516;-39
2023/10/28 17:34:45;;;;;;;39.00;22.60;;;;;;;10.57;92.92;97513.20;435202;1252;97922;-40
2023/10/28 17:44:52;;;;;;;35.40;19.00;;;;;;;10.58;93.31;97523.61;435033;1257;108102;-40
2023/10/28 18:05:00;;;;;;;14.70;9.00;;;;;;;10.53;93.72;97540.67;435046;1257;110414;-40
2023/10/28 18:15:06;;;;;;;15.00;9.60;;;;;;;10.54;93.84;97554.04;434992;1257;108745;-41
2023/10/28 18:35:11;;;;;;;18.10;10.40;;;;;;;10.51;93.76;97553.66;435180;1252;108932;-39
2023/10/28 18:45:16;;;;;;;20.10;11.90;;;;;;;10.43;93.81;97566.57;434952;1267;98317;-41
2023/10/28 18:55:19;;;;;;;22.10;10.70;;;;;;;10.40;93.97;97583.87;435180;1253;110608;-41
2023/10/28 19:05:23;;;;;;;13.30;8.10;;;;;;;10.40;93.87;97595.09;434963;1258;108166;-39
2023/10/28 19:25:30;;;;;;;19.10;9.60;;;;;;;10.43;93.87;97613.61;434814;1259;108785;-41
2023/10/28 19:45:37;;;;;;;28.70;15.20;;;;;;;10.32;93.81;97620.27;435568;1253;109959;-40
2023/10/28 19:55:43;;;;;;;19.90;11.10;;;;;;;10.28;93.72;97628.76;435603;1265;97880;-40
2023/10/28 20:05:46;;;;;;;26.90;15.40;;;;;;;10.27;93.58;97640.36;435110;1257;97912;-40
2023/10/28 20:15:50;;;;;;;26.00;15.40;;;;;;;10.26;93.58;97652.24;435159;1257;110654;-40
2023/10/28 20:25:54;;;;;;;26.90;13.30;;;;;;;10.26;93.60;97656.37;435138;1253;107631;-40
2023/10/28 20:46:02;;;;;;;29.50;15.20;;;;;;;10.06;93.56;97676.81;434945;1257;98252;-41
2023/10/28 21:06:10;;;;;;;23.50;11.90;;;;;;;9.89;93.38;97689.23;434914;1259;97992;-41
2023/10/28 21:16:13;;;;;;;20.10;10.00;;;;;;;9.93;93.44;97693.94;434877;1257;107774;-42
2023/10/28 21:26:17;;;;;;;17.80;9.80;;;;;;;9.97;93.40;97696.33;434982;1256;97870;-42
2023/10/28 21:36:22;;;;;;;20.00;10.60;;;;;;;9.96;93.39;97698.62;435041;1253;110963;-40
2023/10/28 21:46:26;;;;;;;24.40;12.60;;;;;;;9.90;93.42;97695.06;435083;1257;107260;-41
2023/10/28 22:06:32;;;;;;;17.60;9.60;;;;;;;9.83;93.06;97696.48;434972;1256;107808;-41
2023/10/28 22:16:35;;;;;;;12.30;7.30;;;;;;;9.84;93.15;97701.30;434905;1258;97886;-41
2023/10/28 22:26:38;;;;;;;15.30;9.10;;;;;;;9.89;93.26;97711.05;434956;1256;110314;-40
2023/10/28 22:36:42;;;;;;;17.50;8.20;;;;;;;9.93;93.22;97708.23;434858;1258;107585;-41
2023/10/28 22:56:49;;;;;;;15.30;9.50;;;;;;;9.90;92.97;97700.98;434901;1256;107430;-40
2023/10/28 23:26:59;;;;;;;20.10;10.80;;;;;;;9.49;92.76;97724.48;434957;1256;109208;-40
2023/10/28 23:37:06;;;;;;;17.10;10.00;;;;;;;9.43;93.04;97729.45;434959;1254;97485;-40
2023/10/28 23:47:09;;;;;;;19.10;9.40;;;;;;;9.43;93.23;97727.50;435070;1254;108333;-40
2023/10/28 23:57:13;;;;;;;15.80;8.00;;;;;;;9.50;93.37;97720.13;434896;1253;97865;-39
